createdAt,value
2019-02-06T00:00:26.084Z,-9.02
2019-02-06T00:01:36.699Z,-8.89
2019-02-06T00:02:46.713Z,-8.96
2019-02-06T00:03:57.056Z,-8.99
2019-02-06T00:05:19.328Z,-9.06
2019-02-06T00:06:29.753Z,-9.07
2019-02-06T00:07:40.067Z,-9.06
2019-02-06T00:08:50.306Z,-9.1
2019-02-06T00:10:00.518Z,-9.12
2019-02-06T00:11:10.730Z,-9.21
2019-02-06T00:12:20.783Z,-9.25
2019-02-06T00:13:30.937Z,-9.27
2019-02-06T00:14:41.139Z,-9.28
2019-02-06T00:15:51.296Z,-9.24
2019-02-06T00:17:01.504Z,-9.27
2019-02-06T00:18:11.598Z,-9.25
2019-02-06T00:19:21.809Z,-9.24
2019-02-06T00:20:31.820Z,-9.25
2019-02-06T00:21:41.791Z,-9.3
2019-02-06T00:22:51.748Z,-9.25
2019-02-06T00:24:01.697Z,-9.2
2019-02-06T00:25:11.740Z,-9.35
2019-02-06T00:26:21.684Z,-9.34
2019-02-06T00:27:31.620Z,-9.34
2019-02-06T00:28:41.557Z,-9.33
2019-02-06T00:29:51.488Z,-9.49
2019-02-06T00:31:01.520Z,-9.58
2019-02-06T00:32:11.448Z,-9.63
2019-02-06T00:33:21.393Z,-9.78
2019-02-06T00:34:31.337Z,-9.74
2019-02-06T00:35:41.280Z,-9.81
2019-02-06T00:36:51.315Z,-9.81
2019-02-06T00:38:01.254Z,-9.85
2019-02-06T00:39:13.111Z,-9.89
2019-02-06T00:40:23.050Z,-9.82
2019-02-06T00:41:32.991Z,-9.86
2019-02-06T00:42:42.967Z,-9.74
2019-02-06T00:43:52.655Z,-9.81
2019-02-06T00:45:02.675Z,-9.78
2019-02-06T00:46:12.612Z,-9.84
2019-02-06T00:47:22.561Z,-9.84
2019-02-06T00:48:32.597Z,-9.89
2019-02-06T00:49:42.538Z,-9.97
2019-02-06T00:50:52.477Z,-10.02
2019-02-06T00:52:02.427Z,-10.02
2019-02-06T00:53:12.373Z,-10.05
2019-02-06T00:54:22.350Z,-10.02
2019-02-06T00:55:32.294Z,-10.06
2019-02-06T00:56:42.233Z,-10.09
2019-02-06T00:57:52.162Z,-10.02
2019-02-06T00:59:02.107Z,-10.06
2019-02-06T01:00:12.157Z,-10.03
2019-02-06T01:01:22.103Z,-10
2019-02-06T01:02:32.052Z,-10.09
2019-02-06T01:03:41.999Z,-10.09
2019-02-06T01:04:51.939Z,-10
2019-02-06T01:06:01.971Z,-10.12
2019-02-06T01:07:11.908Z,-10.09
2019-02-06T01:08:21.834Z,-10.2
2019-02-06T01:09:31.796Z,-10.23
2019-02-06T01:10:41.730Z,-10.35
2019-02-06T01:11:51.761Z,-10.41
2019-02-06T01:13:01.706Z,-10.45
2019-02-06T01:14:11.680Z,-10.44
2019-02-06T01:15:21.708Z,-10.42
2019-02-06T01:16:32.080Z,-10.39
2019-02-06T01:17:42.446Z,-10.36
2019-02-06T01:18:53.152Z,-10.44
2019-02-06T01:20:03.985Z,-10.31
2019-02-06T01:21:15.101Z,-10.35
2019-02-06T01:22:25.864Z,-10.3
2019-02-06T01:23:36.715Z,-10.23
2019-02-06T01:24:47.291Z,-10.17
2019-02-06T01:25:57.757Z,-10.24
2019-02-06T01:27:07.932Z,-10.18
2019-02-06T01:28:18.034Z,-10.21
2019-02-06T01:29:28.138Z,-10.21
2019-02-06T01:30:38.073Z,-10.23
2019-02-06T01:31:48.025Z,-10.28
2019-02-06T01:32:57.983Z,-10.25
2019-02-06T01:34:07.938Z,-10.36
2019-02-06T01:35:17.931Z,-10.36
2019-02-06T01:36:27.876Z,-10.41
2019-02-06T01:37:37.807Z,-10.56
2019-02-06T01:38:47.750Z,-10.59
2019-02-06T01:39:57.688Z,-10.76
2019-02-06T01:41:07.817Z,-10.8
2019-02-06T01:42:17.755Z,-10.73
2019-02-06T01:43:27.679Z,-10.76
2019-02-06T01:44:37.624Z,-10.77
2019-02-06T01:45:47.562Z,-10.76
2019-02-06T01:46:57.552Z,-10.76
2019-02-06T01:48:07.483Z,-10.69
2019-02-06T01:49:17.419Z,-10.63
2019-02-06T01:50:27.358Z,-10.69
2019-02-06T01:51:37.294Z,-10.76
2019-02-06T01:52:47.285Z,-10.81
2019-02-06T01:53:57.248Z,-10.85
2019-02-06T01:55:07.198Z,-11.02
2019-02-06T01:56:17.144Z,-10.93
2019-02-06T01:57:27.093Z,-11.05
2019-02-06T01:58:37.080Z,-11.06
2019-02-06T01:59:47.012Z,-11.05
2019-02-06T02:00:56.944Z,-10.93
2019-02-06T02:02:06.877Z,-10.96
2019-02-06T02:03:16.820Z,-10.87
2019-02-06T02:04:26.872Z,-10.9
2019-02-06T02:05:37.885Z,-10.87
2019-02-06T02:06:48.031Z,-10.92
2019-02-06T02:07:57.956Z,-10.88
2019-02-06T02:09:07.886Z,-10.83
2019-02-06T02:10:17.932Z,-10.85
2019-02-06T02:11:27.947Z,-10.87
2019-02-06T02:12:37.886Z,-10.83
2019-02-06T02:13:47.820Z,-10.92
2019-02-06T02:14:57.750Z,-10.85
2019-02-06T02:16:07.988Z,-10.85
2019-02-06T02:17:17.916Z,-10.95
2019-02-06T02:18:27.840Z,-10.9
2019-02-06T02:19:37.764Z,-10.87
2019-02-06T02:20:47.714Z,-10.85
2019-02-06T02:21:57.702Z,-10.88
2019-02-06T02:23:07.650Z,-11.02
2019-02-06T02:24:17.585Z,-10.9
2019-02-06T02:25:27.523Z,-10.95
2019-02-06T02:26:37.460Z,-10.87
2019-02-06T02:27:47.470Z,-10.9
2019-02-06T02:28:57.429Z,-10.81
2019-02-06T02:30:07.371Z,-10.8
2019-02-06T02:31:17.347Z,-10.87
2019-02-06T02:32:27.379Z,-10.9
2019-02-06T02:33:37.425Z,-10.83
2019-02-06T02:34:47.369Z,-10.93
2019-02-06T02:35:57.316Z,-10.81
2019-02-06T02:37:20.386Z,-10.97
2019-02-06T02:38:30.614Z,-10.95
2019-02-06T02:39:40.549Z,-10.97
2019-02-06T02:40:50.481Z,-10.9
2019-02-06T02:42:00.439Z,-10.97
2019-02-06T02:43:10.454Z,-10.88
2019-02-06T02:44:20.402Z,-11.02
2019-02-06T02:45:30.346Z,-11
2019-02-06T02:46:40.288Z,-10.92
2019-02-06T02:47:50.237Z,-10.93
2019-02-06T02:49:00.175Z,-10.9
2019-02-06T02:50:10.208Z,-10.81
2019-02-06T02:51:20.134Z,-10.9
2019-02-06T02:52:30.082Z,-10.99
2019-02-06T02:53:40.050Z,-10.96
2019-02-06T02:54:49.990Z,-11
2019-02-06T02:56:00.043Z,-11.06
2019-02-06T02:57:09.986Z,-11.2
2019-02-06T02:58:19.945Z,-11.2
2019-02-06T02:59:30.058Z,-11.18
2019-02-06T03:00:39.988Z,-11.34
2019-02-06T03:01:50.108Z,-11.31
2019-02-06T03:03:00.058Z,-11.38
2019-02-06T03:04:10.169Z,-11.34
2019-02-06T03:05:20.121Z,-11.45
2019-02-06T03:06:33.275Z,-11.55
2019-02-06T03:07:43.275Z,-11.55
2019-02-06T03:08:53.228Z,-11.59
2019-02-06T03:10:03.177Z,-11.62
2019-02-06T03:11:13.103Z,-11.63
2019-02-06T03:12:23.065Z,-11.71
2019-02-06T03:13:33.068Z,-11.6
2019-02-06T03:14:42.999Z,-11.71
2019-02-06T03:15:52.933Z,-11.78
2019-02-06T03:17:05.789Z,-11.74
2019-02-06T03:18:15.736Z,-11.84
2019-02-06T03:19:25.806Z,-11.77
2019-02-06T03:20:35.498Z,-11.77
2019-02-06T03:21:45.443Z,-11.73
2019-02-06T03:22:55.397Z,-11.68
2019-02-06T03:24:05.355Z,-11.85
2019-02-06T03:25:15.530Z,-11.8
2019-02-06T03:26:25.501Z,-11.85
2019-02-06T03:27:35.454Z,-11.87
2019-02-06T03:28:45.409Z,-11.8
2019-02-06T03:29:55.099Z,-11.78
2019-02-06T03:31:05.123Z,-11.88
2019-02-06T03:32:15.094Z,-11.95
2019-02-06T03:33:25.120Z,-11.92
2019-02-06T03:34:35.062Z,-11.91
2019-02-06T03:35:45.144Z,-11.98
2019-02-06T03:36:55.332Z,-12.15
2019-02-06T03:38:05.606Z,-12.13
2019-02-06T03:39:15.697Z,-12.21
2019-02-06T03:40:26.356Z,-12.13
2019-02-06T03:41:36.923Z,-12.21
2019-02-06T03:42:47.973Z,-12.16
2019-02-06T03:43:58.865Z,-12.21
2019-02-06T03:45:09.762Z,-12.31
2019-02-06T03:46:20.639Z,-12.28
2019-02-06T03:47:31.132Z,-12.23
2019-02-06T03:48:41.545Z,-12.27
2019-02-06T03:49:51.690Z,-12.28
2019-02-06T03:51:01.884Z,-12.35
2019-02-06T03:52:11.589Z,-12.34
2019-02-06T03:53:21.525Z,-12.31
2019-02-06T03:54:31.752Z,-12.31
2019-02-06T03:55:41.724Z,-12.35
2019-02-06T03:56:51.683Z,-12.48
2019-02-06T03:58:01.624Z,-12.48
2019-02-06T03:59:11.565Z,-12.63
2019-02-06T04:00:21.618Z,-12.58
2019-02-06T04:01:31.562Z,-12.56
2019-02-06T04:02:41.494Z,-12.63
2019-02-06T04:03:51.450Z,-12.64
2019-02-06T04:05:01.497Z,-12.51
2019-02-06T04:06:11.547Z,-12.52
2019-02-06T04:07:21.505Z,-12.58
2019-02-06T04:08:31.455Z,-12.62
2019-02-06T04:09:41.408Z,-12.55
2019-02-06T04:10:51.355Z,-12.64
2019-02-06T04:12:01.380Z,-12.67
2019-02-06T04:13:11.325Z,-12.64
2019-02-06T04:14:21.269Z,-12.63
2019-02-06T04:15:31.230Z,-12.55
2019-02-06T04:16:41.260Z,-12.56
2019-02-06T04:17:54.276Z,-12.46
2019-02-06T04:19:04.533Z,-12.48
2019-02-06T04:20:14.532Z,-12.34
2019-02-06T04:21:24.478Z,-12.35
2019-02-06T04:22:34.431Z,-12.32
2019-02-06T04:23:44.401Z,-12.3
2019-02-06T04:24:56.562Z,-12.38
2019-02-06T04:26:06.517Z,-12.34
2019-02-06T04:27:16.459Z,-12.32
2019-02-06T04:28:26.394Z,-12.31
2019-02-06T04:29:36.420Z,-12.35
2019-02-06T04:30:46.347Z,-12.49
2019-02-06T04:31:56.463Z,-12.45
2019-02-06T04:33:06.405Z,-12.52
2019-02-06T04:34:16.343Z,-12.49
2019-02-06T04:35:26.380Z,-12.58
2019-02-06T04:36:36.310Z,-12.62
2019-02-06T04:37:46.303Z,-12.63
2019-02-06T04:38:56.286Z,-12.6
2019-02-06T04:40:06.226Z,-12.69
2019-02-06T04:41:16.183Z,-12.66
2019-02-06T04:42:26.135Z,-12.62
2019-02-06T04:43:36.061Z,-12.58
2019-02-06T04:44:45.988Z,-12.55
2019-02-06T04:45:55.931Z,-12.56
2019-02-06T04:47:05.954Z,-12.64
2019-02-06T04:48:15.894Z,-12.51
2019-02-06T04:49:25.840Z,-12.64
2019-02-06T04:50:36.090Z,-12.51
2019-02-06T04:51:46.343Z,-12.51
2019-02-06T04:52:56.972Z,-12.62
2019-02-06T04:54:07.505Z,-12.66
2019-02-06T04:55:18.653Z,-12.51
2019-02-06T04:56:29.433Z,-12.49
2019-02-06T04:57:40.255Z,-12.56
2019-02-06T04:58:51.069Z,-12.58
2019-02-06T05:00:01.120Z,-12.56
2019-02-06T05:01:11.195Z,-12.56
2019-02-06T05:02:21.550Z,-12.6
2019-02-06T05:03:31.509Z,-12.62
2019-02-06T05:04:41.503Z,-12.62
2019-02-06T05:05:51.433Z,-12.66
2019-02-06T05:07:01.360Z,-12.64
2019-02-06T05:08:23.936Z,-12.62
2019-02-06T05:09:33.891Z,-12.67
2019-02-06T05:10:44.024Z,-12.67
2019-02-06T05:11:53.977Z,-12.64
2019-02-06T05:13:03.911Z,-12.6
2019-02-06T05:14:13.856Z,-12.58
2019-02-06T05:15:23.848Z,-12.58
2019-02-06T05:16:33.793Z,-12.64
2019-02-06T05:17:43.724Z,-12.53
2019-02-06T05:18:53.915Z,-12.66
2019-02-06T05:20:03.869Z,-12.66
2019-02-06T05:21:13.933Z,-12.6
2019-02-06T05:22:23.882Z,-12.67
2019-02-06T05:23:33.831Z,-12.69
2019-02-06T05:24:43.775Z,-12.58
2019-02-06T05:25:53.703Z,-12.58
2019-02-06T05:27:03.684Z,-12.62
2019-02-06T05:28:13.626Z,-12.66
2019-02-06T05:29:25.926Z,-12.66
2019-02-06T05:30:35.971Z,-12.74
2019-02-06T05:31:45.903Z,-12.76
2019-02-06T05:32:55.885Z,-12.7
2019-02-06T05:34:05.816Z,-12.7
2019-02-06T05:35:15.756Z,-12.8
2019-02-06T05:36:25.706Z,-12.72
2019-02-06T05:37:37.247Z,-12.69
2019-02-06T05:38:47.045Z,-12.76
2019-02-06T05:39:56.761Z,-12.81
2019-02-06T05:41:06.697Z,-12.74
2019-02-06T05:42:16.632Z,-12.77
2019-02-06T05:43:26.569Z,-12.92
2019-02-06T05:44:36.620Z,-12.92
2019-02-06T05:45:46.556Z,-12.91
2019-02-06T05:46:56.504Z,-12.92
2019-02-06T05:48:06.447Z,-12.84
2019-02-06T05:49:16.382Z,-12.84
2019-02-06T05:50:26.195Z,-12.91
2019-02-06T05:51:36.147Z,-12.85
2019-02-06T05:52:46.126Z,-12.88
2019-02-06T05:53:56.291Z,-12.88
2019-02-06T05:55:09.528Z,-12.92
2019-02-06T05:56:19.944Z,-12.92
2019-02-06T05:57:30.227Z,-12.9
2019-02-06T05:58:40.841Z,-12.9
2019-02-06T05:59:51.331Z,-12.95
2019-02-06T06:01:02.227Z,-12.77
2019-02-06T06:02:13.188Z,-12.8
2019-02-06T06:03:24.271Z,-12.82
2019-02-06T06:04:34.995Z,-12.64
2019-02-06T06:05:45.350Z,-12.66
2019-02-06T06:06:55.532Z,-12.73
2019-02-06T06:08:05.694Z,-12.7
2019-02-06T06:09:15.635Z,-12.67
2019-02-06T06:10:25.650Z,-12.63
2019-02-06T06:11:35.589Z,-12.62
2019-02-06T06:12:45.531Z,-12.58
2019-02-06T06:13:55.634Z,-12.6
2019-02-06T06:15:05.584Z,-12.55
2019-02-06T06:16:15.521Z,-12.58
2019-02-06T06:17:25.452Z,-12.53
2019-02-06T06:18:35.417Z,-12.48
2019-02-06T06:19:45.421Z,-12.51
2019-02-06T06:20:55.386Z,-12.49
2019-02-06T06:22:05.327Z,-12.45
2019-02-06T06:23:15.275Z,-12.4
2019-02-06T06:24:25.239Z,-12.35
2019-02-06T06:25:35.215Z,-12.19
2019-02-06T06:26:45.154Z,-12.27
2019-02-06T06:27:55.097Z,-12.16
2019-02-06T06:29:05.042Z,-12.12
2019-02-06T06:30:14.986Z,-12.12
2019-02-06T06:31:25.056Z,-12.13
2019-02-06T06:32:36.941Z,-12.03
2019-02-06T06:33:46.877Z,-12.1
2019-02-06T06:34:56.807Z,-11.92
2019-02-06T06:36:06.505Z,-11.95
2019-02-06T06:37:16.511Z,-11.95
2019-02-06T06:38:26.444Z,-11.89
2019-02-06T06:39:36.395Z,-11.87
2019-02-06T06:40:46.463Z,-11.92
2019-02-06T06:41:56.424Z,-11.92
2019-02-06T06:43:06.588Z,-11.91
2019-02-06T06:44:16.578Z,-11.87
2019-02-06T06:45:26.520Z,-11.89
2019-02-06T06:46:36.444Z,-11.78
2019-02-06T06:47:46.391Z,-11.77
2019-02-06T06:48:56.394Z,-11.73
2019-02-06T06:50:06.349Z,-11.78
2019-02-06T06:51:16.279Z,-11.7
2019-02-06T06:52:26.233Z,-11.63
2019-02-06T06:53:36.186Z,-11.5
2019-02-06T06:54:46.346Z,-11.5
2019-02-06T06:55:56.041Z,-11.55
2019-02-06T06:57:06.002Z,-11.52
2019-02-06T06:58:17.716Z,-11.44
2019-02-06T06:59:27.900Z,-11.48
2019-02-06T07:00:37.947Z,-11.37
2019-02-06T07:01:47.649Z,-11.35
2019-02-06T07:02:57.799Z,-11.38
2019-02-06T07:04:07.781Z,-11.34
2019-02-06T07:05:17.850Z,-11.38
2019-02-06T07:06:27.808Z,-11.32
2019-02-06T07:07:37.575Z,-11.32
2019-02-06T07:08:47.541Z,-11.21
2019-02-06T07:09:57.504Z,-11.28
2019-02-06T07:11:07.444Z,-11.35
2019-02-06T07:12:17.485Z,-11.26
2019-02-06T07:13:27.423Z,-11.23
2019-02-06T07:14:37.401Z,-11.21
2019-02-06T07:15:47.353Z,-11.17
2019-02-06T07:16:57.301Z,-11.29
2019-02-06T07:18:07.593Z,-11.13
2019-02-06T07:19:17.822Z,-11.2
2019-02-06T07:20:28.179Z,-11.11
2019-02-06T07:21:38.815Z,-11.14
2019-02-06T07:22:49.851Z,-11.18
2019-02-06T07:24:00.938Z,-11.06
2019-02-06T07:25:11.669Z,-11.14
2019-02-06T07:26:22.220Z,-11.1
2019-02-06T07:27:32.657Z,-11.06
2019-02-06T07:28:42.762Z,-11.07
2019-02-06T07:29:52.981Z,-10.99
2019-02-06T07:31:02.918Z,-10.96
2019-02-06T07:32:12.854Z,-10.92
2019-02-06T07:33:22.793Z,-11
2019-02-06T07:34:32.499Z,-10.93
2019-02-06T07:35:42.547Z,-10.99
2019-02-06T07:36:52.488Z,-10.97
2019-02-06T07:38:02.434Z,-10.96
2019-02-06T07:39:12.460Z,-10.77
2019-02-06T07:40:22.489Z,-10.76
2019-02-06T07:41:32.531Z,-10.77
2019-02-06T07:42:42.502Z,-10.74
2019-02-06T07:43:52.459Z,-10.66
2019-02-06T07:45:02.395Z,-10.77
2019-02-06T07:46:12.078Z,-10.67
2019-02-06T07:47:22.113Z,-10.74
2019-02-06T07:48:32.053Z,-10.63
2019-02-06T07:49:41.980Z,-10.65
2019-02-06T07:50:51.919Z,-10.59
2019-02-06T07:52:01.857Z,-10.53
2019-02-06T07:53:11.793Z,-10.62
2019-02-06T07:54:21.486Z,-10.56
2019-02-06T07:55:31.425Z,-10.56
2019-02-06T07:56:41.129Z,-10.57
2019-02-06T07:57:51.155Z,-10.52
2019-02-06T07:59:01.152Z,-10.48
2019-02-06T08:00:11.100Z,-10.45
2019-02-06T08:01:21.052Z,-10.44
2019-02-06T08:02:31.011Z,-10.45
2019-02-06T08:03:40.949Z,-10.44
2019-02-06T08:04:50.983Z,-10.34
2019-02-06T08:06:00.946Z,-10.34
2019-02-06T08:07:10.876Z,-10.2
2019-02-06T08:08:20.802Z,-10.21
2019-02-06T08:09:41.412Z,-10.15
2019-02-06T08:10:51.416Z,-10.09
2019-02-06T08:12:01.359Z,-10.03
2019-02-06T08:13:11.291Z,-10.07
2019-02-06T08:14:21.219Z,-10.06
2019-02-06T08:15:31.141Z,-10.02
2019-02-06T08:16:41.195Z,-9.97
2019-02-06T08:17:51.136Z,-9.88
2019-02-06T08:19:01.131Z,-9.99
2019-02-06T08:20:11.083Z,-9.81
2019-02-06T08:21:21.028Z,-9.89
2019-02-06T08:22:31.201Z,-9.84
2019-02-06T08:23:41.166Z,-9.85
2019-02-06T08:24:51.119Z,-9.85
2019-02-06T08:26:01.056Z,-9.78
2019-02-06T08:27:11.015Z,-9.7
2019-02-06T08:28:21.314Z,-9.68
2019-02-06T08:29:31.546Z,-9.71
2019-02-06T08:30:41.918Z,-9.71
2019-02-06T08:31:52.493Z,-9.68
2019-02-06T08:33:03.556Z,-9.74
2019-02-06T08:34:14.790Z,-9.6
2019-02-06T08:35:25.663Z,-9.73
2019-02-06T08:36:36.010Z,-9.67
2019-02-06T08:37:46.192Z,-9.7
2019-02-06T08:38:58.198Z,-9.65
2019-02-06T08:40:08.249Z,-9.61
2019-02-06T08:41:18.194Z,-9.64
2019-02-06T08:42:28.129Z,-9.63
2019-02-06T08:43:38.067Z,-9.6
2019-02-06T08:44:48.009Z,-9.56
2019-02-06T08:45:57.743Z,-9.53
2019-02-06T08:47:07.694Z,-9.5
2019-02-06T08:48:17.656Z,-9.5
2019-02-06T08:49:27.613Z,-9.49
2019-02-06T08:50:37.566Z,-9.41
2019-02-06T08:51:47.613Z,-9.35
2019-02-06T08:52:57.552Z,-9.41
2019-02-06T08:54:07.518Z,-9.35
2019-02-06T08:55:17.459Z,-9.31
2019-02-06T08:56:27.387Z,-9.27
2019-02-06T08:57:37.365Z,-9.27
2019-02-06T08:58:47.300Z,-9.24
2019-02-06T08:59:57.233Z,-9.3
2019-02-06T09:01:07.181Z,-9.27
2019-02-06T09:02:17.117Z,-9.2
2019-02-06T09:03:27.101Z,-9.13
2019-02-06T09:04:37.045Z,-9.12
2019-02-06T09:05:46.764Z,-9.1
2019-02-06T09:06:56.697Z,-9.13
2019-02-06T09:08:06.646Z,-9.07
2019-02-06T09:09:16.633Z,-9.17
2019-02-06T09:10:26.577Z,-9.09
2019-02-06T09:11:36.520Z,-9.09
2019-02-06T09:12:46.460Z,-9.04
2019-02-06T09:13:56.404Z,-9.21
2019-02-06T09:15:06.442Z,-9.17
2019-02-06T09:16:16.386Z,-9.14
2019-02-06T09:17:26.334Z,-9.12
2019-02-06T09:18:36.263Z,-9.16
2019-02-06T09:19:46.205Z,-9.28
2019-02-06T09:20:57.866Z,-9.21
2019-02-06T09:25:57.452Z,-9.2
2019-02-06T09:27:08.344Z,-9.23
2019-02-06T09:28:19.253Z,-9.1
2019-02-06T09:29:30.225Z,-9.04
2019-02-06T09:30:40.914Z,-9.13
2019-02-06T09:31:51.308Z,-9.09
2019-02-06T09:33:01.523Z,-9.13
2019-02-06T09:34:14.681Z,-9.13
2019-02-06T09:35:24.626Z,-9.13
2019-02-06T09:36:34.567Z,-9.09
2019-02-06T09:37:44.581Z,-9.07
2019-02-06T09:38:54.534Z,-9.04
2019-02-06T09:40:16.357Z,-9.07
2019-02-06T09:41:26.306Z,-9.06
2019-02-06T09:42:36.258Z,-9.06
2019-02-06T09:43:46.318Z,-8.98
2019-02-06T09:44:56.063Z,-8.91
2019-02-06T09:46:06.003Z,-8.94
2019-02-06T09:47:15.970Z,-8.88
2019-02-06T09:48:25.987Z,-8.91
2019-02-06T09:49:35.939Z,-8.98
2019-02-06T09:50:47.024Z,-8.89
2019-02-06T09:51:56.963Z,-8.89
2019-02-06T09:53:06.901Z,-8.84
2019-02-06T09:54:16.897Z,-8.86
2019-02-06T09:55:26.841Z,-8.77
2019-02-06T09:56:36.808Z,-8.65
2019-02-06T09:57:46.738Z,-8.7
2019-02-06T09:58:56.687Z,-8.68
2019-02-06T10:00:06.753Z,-8.64
2019-02-06T10:01:16.689Z,-8.52
2019-02-06T10:02:29.151Z,-8.41
2019-02-06T10:03:39.089Z,-8.42
2019-02-06T10:04:52.105Z,-8.38
2019-02-06T10:06:02.097Z,-8.42
2019-02-06T10:07:12.031Z,-8.38
2019-02-06T10:08:21.998Z,-8.36
2019-02-06T10:09:31.939Z,-8.42
2019-02-06T10:10:41.871Z,-8.42
2019-02-06T10:11:51.871Z,-8.5
2019-02-06T10:13:01.845Z,-8.52
2019-02-06T10:14:11.896Z,-8.53
2019-02-06T10:15:21.842Z,-8.54
2019-02-06T10:16:31.789Z,-8.59
2019-02-06T10:17:41.732Z,-8.6
2019-02-06T10:18:51.670Z,-8.59
2019-02-06T10:20:01.625Z,-8.6
2019-02-06T10:21:11.636Z,-8.62
2019-02-06T10:22:21.935Z,-8.57
2019-02-06T10:23:36.301Z,-8.62
2019-02-06T10:24:49.236Z,-8.62
2019-02-06T10:25:59.802Z,-8.56
2019-02-06T10:27:10.193Z,-8.54
2019-02-06T10:28:20.418Z,-8.57
2019-02-06T10:29:32.110Z,-8.47
2019-02-06T10:30:42.076Z,-8.46
2019-02-06T10:31:51.775Z,-8.5
2019-02-06T10:33:01.491Z,-8.46
2019-02-06T10:34:11.431Z,-8.5
2019-02-06T10:35:21.413Z,-8.35
2019-02-06T10:36:31.406Z,-8.41
2019-02-06T10:37:41.364Z,-8.2
2019-02-06T10:38:51.446Z,-8.29
2019-02-06T10:40:03.588Z,-8.39
2019-02-06T10:41:13.671Z,-8.36
2019-02-06T10:42:23.618Z,-8.39
2019-02-06T10:43:38.360Z,-8.23
2019-02-06T10:44:48.312Z,-8.38
2019-02-06T10:45:58.243Z,-8.24
2019-02-06T10:47:08.318Z,-8.26
2019-02-06T10:48:18.265Z,-8.23
2019-02-06T10:49:28.209Z,-8.17
2019-02-06T10:50:38.165Z,-8.32
2019-02-06T10:51:48.108Z,-8.18
2019-02-06T10:52:58.154Z,-8.26
2019-02-06T10:54:08.140Z,-8.18
2019-02-06T10:55:20.012Z,-8.18
2019-02-06T10:56:30.067Z,-8.26
2019-02-06T10:57:40.019Z,-8.11
2019-02-06T10:58:50.066Z,-7.99
2019-02-06T11:00:00.006Z,-7.96
2019-02-06T11:01:09.959Z,-7.8
2019-02-06T11:02:19.901Z,-7.73
2019-02-06T11:03:29.851Z,-7.77
2019-02-06T11:04:39.908Z,-7.6
2019-02-06T11:05:49.964Z,-7.57
2019-02-06T11:06:59.903Z,-7.52
2019-02-06T11:08:09.859Z,-7.5
2019-02-06T11:09:19.810Z,-7.48
2019-02-06T11:10:29.931Z,-7.45
2019-02-06T11:11:39.897Z,-7.34
2019-02-06T11:12:49.846Z,-7.39
2019-02-06T11:13:59.802Z,-7.39
2019-02-06T11:15:09.750Z,-7.44
2019-02-06T11:16:19.856Z,-7.46
2019-02-06T11:17:29.798Z,-7.48
2019-02-06T11:18:39.733Z,-7.55
2019-02-06T11:19:52.193Z,-7.48
2019-02-06T11:21:02.554Z,-7.5
2019-02-06T11:22:12.839Z,-7.53
2019-02-06T11:23:23.216Z,-7.55
2019-02-06T11:24:33.796Z,-7.5
2019-02-06T11:25:44.990Z,-7.52
2019-02-06T11:26:56.148Z,-7.56
2019-02-06T11:28:06.929Z,-7.55
2019-02-06T11:29:17.326Z,-7.6
2019-02-06T11:30:27.539Z,-7.5
2019-02-06T11:31:37.656Z,-7.5
2019-02-06T11:32:47.676Z,-7.35
2019-02-06T11:33:57.713Z,-7.32
2019-02-06T11:35:07.677Z,-7.28
2019-02-06T11:36:28.569Z,-7.21
2019-02-06T11:37:38.509Z,-7.09
2019-02-06T11:38:48.464Z,-7.28
2019-02-06T11:40:03.034Z,-7.36
2019-02-06T11:41:12.989Z,-7.32
2019-02-06T11:42:22.936Z,-7.38
2019-02-06T11:43:34.691Z,-7.53
2019-02-06T11:44:44.793Z,-7.44
2019-02-06T11:45:54.748Z,-7.45
2019-02-06T11:47:04.723Z,-7.38
2019-02-06T11:48:14.697Z,-7.3
2019-02-06T11:49:24.674Z,-7.3
2019-02-06T11:50:34.840Z,-7.24
2019-02-06T11:51:44.795Z,-7.21
2019-02-06T11:52:54.791Z,-7.3
2019-02-06T11:54:04.842Z,-7.38
2019-02-06T11:55:14.925Z,-7.34
2019-02-06T11:56:25.073Z,-7.38
2019-02-06T11:57:35.016Z,-7.41
2019-02-06T11:58:44.973Z,-7.38
2019-02-06T11:59:57.969Z,-7.34
2019-02-06T12:01:07.964Z,-7.42
2019-02-06T12:02:18.973Z,-7.3
2019-02-06T12:03:28.923Z,-7.38
2019-02-06T12:04:38.869Z,-7.38
2019-02-06T12:05:48.801Z,-7.45
2019-02-06T12:06:58.739Z,-7.38
2019-02-06T12:08:08.790Z,-7.44
2019-02-06T12:09:21.187Z,-7.32
2019-02-06T12:10:31.542Z,-7.35
2019-02-06T12:11:42.036Z,-7.25
2019-02-06T12:12:52.547Z,-7.3
2019-02-06T12:14:03.341Z,-7.38
2019-02-06T12:15:14.252Z,-7.38
2019-02-06T12:16:25.553Z,-7.27
2019-02-06T12:17:36.947Z,-7.18
2019-02-06T12:18:47.347Z,-7.07
2019-02-06T12:19:57.624Z,-6.99
2019-02-06T12:21:07.799Z,-6.96
2019-02-06T12:22:17.828Z,-6.84
2019-02-06T12:23:37.143Z,-6.79
2019-02-06T12:24:47.081Z,-6.82
2019-02-06T12:25:57.078Z,-6.76
2019-02-06T12:27:07.027Z,-6.81
2019-02-06T12:28:17.020Z,-6.75
2019-02-06T12:29:26.732Z,-6.85
2019-02-06T12:30:36.682Z,-6.82
2019-02-06T12:31:46.832Z,-6.81
2019-02-06T12:32:57.460Z,-6.88
2019-02-06T12:34:07.418Z,-6.81
2019-02-06T12:35:17.359Z,-6.82
2019-02-06T12:36:27.292Z,-6.89
2019-02-06T12:37:37.424Z,-6.92
2019-02-06T12:38:58.282Z,-6.95
2019-02-06T12:40:08.215Z,-6.84
2019-02-06T12:41:29.319Z,-6.85
2019-02-06T12:42:39.277Z,-6.76
2019-02-06T12:43:49.248Z,-6.76
2019-02-06T12:45:01.570Z,-6.68
2019-02-06T12:46:11.526Z,-6.56
2019-02-06T12:47:21.466Z,-6.7
2019-02-06T12:48:34.533Z,-6.68
2019-02-06T12:49:44.481Z,-6.75
2019-02-06T12:50:54.420Z,-6.82
2019-02-06T12:52:04.475Z,-6.84
2019-02-06T12:53:14.436Z,-6.92
2019-02-06T12:54:24.482Z,-6.96
2019-02-06T12:55:34.448Z,-6.86
2019-02-06T12:56:44.385Z,-6.95
2019-02-06T12:57:54.079Z,-7.07
2019-02-06T12:59:04.045Z,-7.09
2019-02-06T13:00:14.115Z,-7
2019-02-06T13:01:24.069Z,-7.03
2019-02-06T13:02:34.001Z,-7.09
2019-02-06T13:03:44.090Z,-7.1
2019-02-06T13:04:54.030Z,-7.2
2019-02-06T13:06:04.328Z,-7.17
2019-02-06T13:07:14.753Z,-7.21
2019-02-06T13:08:25.316Z,-7.21
2019-02-06T13:09:35.719Z,-7.15
2019-02-06T13:10:46.492Z,-7.18
2019-02-06T13:11:57.330Z,-7.23
2019-02-06T13:13:08.517Z,-7.23
2019-02-06T13:14:19.333Z,-7.34
2019-02-06T13:15:29.847Z,-7.35
2019-02-06T13:16:40.008Z,-7.39
2019-02-06T13:17:50.184Z,-7.32
2019-02-06T13:19:00.136Z,-7.38
2019-02-06T13:20:10.152Z,-7.38
2019-02-06T13:21:20.099Z,-7.42
2019-02-06T13:22:30.044Z,-7.35
2019-02-06T13:23:40.090Z,-7.42
2019-02-06T13:24:50.020Z,-7.45
2019-02-06T13:25:59.964Z,-7.35
2019-02-06T13:27:09.910Z,-7.36
2019-02-06T13:28:19.877Z,-7.41
2019-02-06T13:29:29.962Z,-7.39
2019-02-06T13:30:39.936Z,-7.41
2019-02-06T13:31:49.881Z,-7.32
2019-02-06T13:32:59.826Z,-7.41
2019-02-06T13:34:09.781Z,-7.44
2019-02-06T13:35:19.778Z,-7.39
2019-02-06T13:36:29.716Z,-7.46
2019-02-06T13:37:39.654Z,-7.42
2019-02-06T13:38:49.609Z,-7.52
2019-02-06T13:39:59.566Z,-7.53
2019-02-06T13:41:09.320Z,-7.59
2019-02-06T13:42:19.282Z,-7.48
2019-02-06T13:43:29.011Z,-7.52
2019-02-06T13:44:41.434Z,-7.44
2019-02-06T13:45:51.619Z,-7.34
2019-02-06T13:47:01.608Z,-7.36
2019-02-06T13:48:11.548Z,-7.28
2019-02-06T13:49:21.500Z,-7.21
2019-02-06T13:50:31.200Z,-7.2
2019-02-06T13:51:41.139Z,-7.09
2019-02-06T13:52:51.194Z,-7.07
2019-02-06T13:54:01.146Z,-7.05
2019-02-06T13:55:11.083Z,-7.1
2019-02-06T13:56:22.242Z,-7.02
2019-02-06T13:57:38.680Z,-7.03
2019-02-06T13:58:48.719Z,-6.91
2019-02-06T13:59:58.656Z,-6.92
2019-02-06T14:01:08.621Z,-6.95
2019-02-06T14:02:31.231Z,-6.91
2019-02-06T14:03:41.925Z,-6.99
2019-02-06T14:04:52.834Z,-6.96
2019-02-06T14:06:03.561Z,-7
2019-02-06T14:07:16.712Z,-7.05
2019-02-06T14:08:26.657Z,-7.13
2019-02-06T14:09:36.636Z,-7.18
2019-02-06T14:10:58.261Z,-7.1
2019-02-06T14:12:13.177Z,-7.18
2019-02-06T14:13:23.448Z,-7.25
2019-02-06T14:14:33.493Z,-7.32
2019-02-06T14:15:43.444Z,-7.38
2019-02-06T14:16:53.386Z,-7.36
2019-02-06T14:18:03.081Z,-7.35
2019-02-06T14:19:13.027Z,-7.42
2019-02-06T14:20:23.068Z,-7.46
2019-02-06T14:21:33.049Z,-7.46
2019-02-06T14:22:43.089Z,-7.53
2019-02-06T14:23:53.496Z,-7.52
2019-02-06T14:25:03.436Z,-7.52
2019-02-06T14:26:16.602Z,-7.59
2019-02-06T14:27:26.537Z,-7.56
2019-02-06T14:28:46.695Z,-7.48
2019-02-06T14:29:56.400Z,-7.53
2019-02-06T14:31:06.334Z,-7.57
2019-02-06T14:32:20.680Z,-7.66
2019-02-06T14:33:33.983Z,-7.62
2019-02-06T14:34:44.816Z,-7.74
2019-02-06T14:35:55.410Z,-7.64
2019-02-06T14:37:05.359Z,-7.67
2019-02-06T14:38:15.506Z,-7.66
2019-02-06T14:39:25.455Z,-7.7
2019-02-06T14:40:35.392Z,-7.7
2019-02-06T14:41:45.332Z,-7.71
2019-02-06T14:42:55.373Z,-7.71
2019-02-06T14:44:05.323Z,-7.73
2019-02-06T14:45:15.262Z,-7.67
2019-02-06T14:46:25.234Z,-7.64
2019-02-06T14:47:35.172Z,-7.67
2019-02-06T14:48:45.112Z,-7.84
2019-02-06T14:49:55.049Z,-7.83
2019-02-06T14:51:04.983Z,-7.83
2019-02-06T14:52:14.938Z,-7.83
2019-02-06T14:53:24.875Z,-7.73
2019-02-06T14:54:34.918Z,-7.8
2019-02-06T14:55:44.858Z,-7.73
2019-02-06T14:56:54.910Z,-7.74
2019-02-06T14:58:04.851Z,-7.71
2019-02-06T14:59:14.790Z,-7.73